createdAt,value
2023-02-19T00:00:37.123Z,10.00
2023-02-19T00:03:23.844Z,10.05
2023-02-19T00:06:12.164Z,9.82
2023-02-19T00:08:59.120Z,9.72
2023-02-19T00:11:47.853Z,9.81
2023-02-19T00:14:34.725Z,9.96
2023-02-19T00:17:21.461Z,9.79
2023-02-19T00:20:08.985Z,9.94
2023-02-19T00:22:56.292Z,9.72
2023-02-19T00:25:42.750Z,9.51
2023-02-19T00:28:30.422Z,9.69
2023-02-19T00:31:19.934Z,9.77
2023-02-19T00:34:07.412Z,9.72
2023-02-19T00:36:53.952Z,9.77
2023-02-19T00:39:40.490Z,9.68
2023-02-19T00:42:28.527Z,9.72
2023-02-19T00:45:16.352Z,9.89
2023-02-19T00:48:03.219Z,9.95
2023-02-19T00:50:49.531Z,9.70
2023-02-19T00:53:36.230Z,9.94
2023-02-19T00:56:23.201Z,9.64
2023-02-19T00:59:10.402Z,9.77
2023-02-19T01:01:59.099Z,9.79
2023-02-19T01:04:46.022Z,9.59
2023-02-19T01:07:32.573Z,9.69
2023-02-19T01:10:19.344Z,9.74
2023-02-19T01:13:05.760Z,9.75
2023-02-19T01:15:52.557Z,9.87
2023-02-19T01:18:40.756Z,9.99
2023-02-19T01:21:29.755Z,10.15
2023-02-19T01:24:16.726Z,10.13
2023-02-19T01:27:03.429Z,9.91
2023-02-19T01:29:50.139Z,10.17
2023-02-19T01:32:37.137Z,10.04
2023-02-19T01:35:25.288Z,9.93
2023-02-19T01:38:11.762Z,9.87
2023-02-19T01:41:00.269Z,9.89
2023-02-19T01:44:02.565Z,10.12
2023-02-19T01:46:51.535Z,9.92
2023-02-19T01:49:41.458Z,10.12
2023-02-19T01:52:34.151Z,10.11
2023-02-19T01:55:21.574Z,9.94
2023-02-19T01:58:09.907Z,10.00
2023-02-19T02:00:58.774Z,9.99
2023-02-19T02:03:49.842Z,10.04
2023-02-19T02:06:42.761Z,9.85
2023-02-19T02:09:49.652Z,9.87
2023-02-19T02:12:36.026Z,10.03
2023-02-19T02:15:25.807Z,10.01
2023-02-19T02:18:20.910Z,10.05
2023-02-19T02:21:29.669Z,9.93
2023-02-19T02:24:38.239Z,9.98
2023-02-19T02:27:45.290Z,9.89
2023-02-19T02:30:40.686Z,9.69
2023-02-19T02:33:32.653Z,9.87
2023-02-19T02:36:24.665Z,9.92
2023-02-19T02:39:15.050Z,10.00
2023-02-19T02:42:19.270Z,9.82
2023-02-19T02:45:39.687Z,9.93
2023-02-19T02:48:38.409Z,10.07
2023-02-19T02:51:29.293Z,9.98
2023-02-19T02:54:51.064Z,10.29
2023-02-19T02:57:39.909Z,10.21
2023-02-19T03:00:48.917Z,10.04
2023-02-19T03:03:38.743Z,10.28
2023-02-19T03:06:30.335Z,10.20
2023-02-19T03:09:21.828Z,9.97
2023-02-19T03:12:31.719Z,10.29
2023-02-19T03:15:42.831Z,10.13
2023-02-19T03:18:52.188Z,10.17
2023-02-19T03:21:44.106Z,10.06
2023-02-19T03:24:54.437Z,9.82
2023-02-19T03:27:44.155Z,10.02
2023-02-19T03:30:35.415Z,9.95
2023-02-19T03:33:25.294Z,9.91
2023-02-19T03:36:15.642Z,9.97
2023-02-19T03:39:05.250Z,10.14
2023-02-19T03:42:01.109Z,10.26
2023-02-19T03:44:54.283Z,10.07
2023-02-19T03:47:49.949Z,10.14
2023-02-19T03:50:45.800Z,10.00
2023-02-19T03:53:37.697Z,10.16
2023-02-19T03:56:34.198Z,10.12
2023-02-19T03:59:29.983Z,10.24
2023-02-19T04:02:22.952Z,10.11
2023-02-19T04:05:15.543Z,9.92
2023-02-19T04:08:08.805Z,10.01
2023-02-19T04:11:01.623Z,10.21
2023-02-19T04:14:00.506Z,10.03
2023-02-19T04:16:51.895Z,10.08
2023-02-19T04:19:41.422Z,10.14
2023-02-19T04:22:28.869Z,10.07
2023-02-19T04:25:15.783Z,10.11
2023-02-19T04:28:02.812Z,10.15
2023-02-19T04:30:50.898Z,9.82
2023-02-19T04:33:38.106Z,9.98
2023-02-19T04:36:24.592Z,9.96
2023-02-19T04:39:11.133Z,9.99
2023-02-19T04:41:57.888Z,9.83
2023-02-19T04:44:44.550Z,10.08
2023-02-19T04:47:34.078Z,10.00
2023-02-19T04:50:20.476Z,10.03
2023-02-19T04:53:07.094Z,9.95
2023-02-19T04:55:53.880Z,9.77
2023-02-19T04:58:40.745Z,9.86
2023-02-19T05:01:27.791Z,9.82
2023-02-19T05:04:15.818Z,9.85
2023-02-19T05:07:02.215Z,9.81
2023-02-19T05:09:48.957Z,9.83
2023-02-19T05:12:35.413Z,9.90
2023-02-19T05:15:21.905Z,9.90
2023-02-19T05:18:08.802Z,9.99
2023-02-19T05:20:59.294Z,9.88
2023-02-19T05:23:45.570Z,9.94
2023-02-19T05:26:32.074Z,10.06
2023-02-19T05:29:18.851Z,9.86
2023-02-19T05:32:05.352Z,9.97
2023-02-19T05:34:52.165Z,9.82
2023-02-19T05:37:39.894Z,9.69
2023-02-19T05:40:26.447Z,9.73
2023-02-19T05:43:13.756Z,9.88
2023-02-19T05:46:00.248Z,9.76
2023-02-19T05:48:47.328Z,9.68
2023-02-19T05:51:34.023Z,9.67
2023-02-19T05:54:22.155Z,9.80
2023-02-19T05:57:09.066Z,9.97
2023-02-19T05:59:55.470Z,9.78
2023-02-19T06:02:42.335Z,9.74
2023-02-19T06:05:28.984Z,9.62
2023-02-19T06:08:16.606Z,9.72
2023-02-19T06:11:04.731Z,9.74
2023-02-19T06:13:51.272Z,9.66
2023-02-19T06:16:37.755Z,9.90
2023-02-19T06:19:24.473Z,9.90
2023-02-19T06:22:11.344Z,9.72
2023-02-19T06:24:58.165Z,9.64
2023-02-19T06:27:46.218Z,9.74
2023-02-19T06:30:33.189Z,9.73
2023-02-19T06:33:19.591Z,9.64
2023-02-19T06:36:07.946Z,9.66
2023-02-19T06:38:54.579Z,9.49
2023-02-19T06:41:41.269Z,9.47
2023-02-19T06:44:28.994Z,9.74
2023-02-19T06:47:15.640Z,9.81
2023-02-19T06:50:02.350Z,9.67
2023-02-19T06:52:48.798Z,9.63
2023-02-19T06:55:35.402Z,9.50
2023-02-19T06:58:22.023Z,9.82
2023-02-19T07:01:13.045Z,9.66
2023-02-19T07:03:59.817Z,9.76
2023-02-19T07:06:46.520Z,9.74
2023-02-19T07:09:33.361Z,9.57
2023-02-19T07:12:19.833Z,9.45
2023-02-19T07:15:07.062Z,9.69
2023-02-19T07:17:55.023Z,9.47
2023-02-19T07:20:41.510Z,9.73
2023-02-19T07:23:28.160Z,9.67
2023-02-19T07:26:16.997Z,9.77
2023-02-19T07:29:03.620Z,9.86
2023-02-19T07:31:50.288Z,9.69
2023-02-19T07:34:38.148Z,9.62
2023-02-19T07:37:24.885Z,9.64
2023-02-19T07:40:11.763Z,9.80
2023-02-19T07:43:00.448Z,9.78
2023-02-19T07:45:47.288Z,9.87
2023-02-19T07:48:35.161Z,10.04
2023-02-19T07:51:23.551Z,9.90
2023-02-19T07:54:10.408Z,10.07
2023-02-19T07:56:56.994Z,10.19
2023-02-19T07:59:43.352Z,10.04
2023-02-19T08:02:47.881Z,9.90
2023-02-19T08:05:37.939Z,9.90
2023-02-19T08:08:25.719Z,9.76
2023-02-19T08:11:30.279Z,9.90
2023-02-19T08:14:17.009Z,9.89
2023-02-19T08:17:04.303Z,10.08
2023-02-19T08:19:51.341Z,9.89
2023-02-19T08:22:37.950Z,9.78
2023-02-19T08:25:25.843Z,10.11
2023-02-19T08:28:12.919Z,9.70
2023-02-19T08:31:02.010Z,9.91
2023-02-19T08:33:48.569Z,9.92
2023-02-19T08:36:35.422Z,9.93
2023-02-19T08:39:22.145Z,10.09
2023-02-19T08:42:10.178Z,10.08
2023-02-19T08:44:57.418Z,10.34
2023-02-19T08:47:44.775Z,10.09
2023-02-19T08:50:32.506Z,10.07
2023-02-19T08:53:19.570Z,10.43
2023-02-19T08:56:06.783Z,10.17
2023-02-19T08:58:54.875Z,10.20
2023-02-19T09:01:41.643Z,10.01
2023-02-19T09:04:28.375Z,10.29
2023-02-19T09:07:15.238Z,10.21
2023-02-19T09:10:02.248Z,10.06
2023-02-19T09:12:49.333Z,10.43
2023-02-19T09:15:38.525Z,10.51
2023-02-19T09:18:26.036Z,10.35
2023-02-19T09:21:12.780Z,11.01
2023-02-19T09:23:59.759Z,10.94
2023-02-19T09:26:46.638Z,10.79
2023-02-19T09:29:34.510Z,10.34
2023-02-19T09:32:22.695Z,10.58
2023-02-19T09:35:09.438Z,10.54
2023-02-19T09:37:55.843Z,10.52
2023-02-19T09:40:42.469Z,10.72
2023-02-19T09:43:29.967Z,10.94
2023-02-19T09:46:28.008Z,10.82
2023-02-19T09:49:18.096Z,10.83
2023-02-19T09:52:10.091Z,10.76
2023-02-19T09:55:00.238Z,10.96
2023-02-19T09:57:48.117Z,10.93
2023-02-19T10:00:37.014Z,11.08
2023-02-19T10:03:30.858Z,11.15
2023-02-19T10:06:22.566Z,11.03
2023-02-19T10:09:22.638Z,11.02
2023-02-19T10:12:16.908Z,11.05
2023-02-19T10:15:10.780Z,11.58
2023-02-19T10:17:57.115Z,11.38
2023-02-19T10:20:43.974Z,11.05
2023-02-19T10:23:32.277Z,11.09
2023-02-19T10:26:20.051Z,10.96
2023-02-19T10:29:07.322Z,10.79
2023-02-19T10:32:21.008Z,10.71
2023-02-19T10:35:12.980Z,10.90
2023-02-19T10:37:59.477Z,10.82
2023-02-19T10:40:48.093Z,10.71
2023-02-19T10:43:39.915Z,10.73
2023-02-19T10:46:29.498Z,10.76
2023-02-19T10:49:24.790Z,10.44
2023-02-19T10:52:17.631Z,10.80
2023-02-19T10:55:17.068Z,10.95
2023-02-19T10:58:25.205Z,10.93
2023-02-19T11:01:20.669Z,11.18
2023-02-19T11:04:17.565Z,11.56
2023-02-19T11:07:10.040Z,11.86
2023-02-19T11:09:57.636Z,11.66
2023-02-19T11:12:49.139Z,11.34
2023-02-19T11:15:38.537Z,11.07
2023-02-19T11:18:27.860Z,10.61
2023-02-19T11:21:28.433Z,10.72
2023-02-19T11:24:22.593Z,10.87
2023-02-19T11:27:19.846Z,10.30
2023-02-19T11:30:43.048Z,10.30
2023-02-19T11:33:31.185Z,10.52
2023-02-19T11:36:30.044Z,10.63
2023-02-19T11:39:24.665Z,10.43
2023-02-19T11:42:27.161Z,10.36
2023-02-19T11:45:23.542Z,10.51
2023-02-19T11:48:48.507Z,10.52
2023-02-19T11:51:56.670Z,10.39
2023-02-19T11:54:52.651Z,10.50
2023-02-19T11:57:44.228Z,10.48
2023-02-19T12:00:32.143Z,10.61
2023-02-19T12:03:33.053Z,10.86
2023-02-19T12:06:27.578Z,10.49
2023-02-19T12:09:34.636Z,10.42
2023-02-19T12:12:38.040Z,10.59
2023-02-19T12:15:45.133Z,10.69
2023-02-19T12:19:05.390Z,10.90
2023-02-19T12:22:30.439Z,10.86
2023-02-19T12:25:49.391Z,10.73
2023-02-19T12:28:52.649Z,10.09
2023-02-19T12:31:57.377Z,10.31
2023-02-19T12:35:09.334Z,10.21
2023-02-19T12:38:09.599Z,10.26
2023-02-19T12:41:13.363Z,10.54
2023-02-19T12:44:05.237Z,10.43
2023-02-19T12:46:55.604Z,10.63
2023-02-19T12:49:47.205Z,10.78
2023-02-19T12:52:40.246Z,11.05
2023-02-19T12:55:29.874Z,10.99
2023-02-19T12:58:30.927Z,10.74
2023-02-19T13:01:23.315Z,10.67
2023-02-19T13:04:19.298Z,10.73
2023-02-19T13:07:10.251Z,10.88
2023-02-19T13:10:01.496Z,11.06
2023-02-19T13:12:50.888Z,10.75
2023-02-19T13:15:42.883Z,11.15
2023-02-19T13:18:35.276Z,10.75
2023-02-19T13:21:43.182Z,10.64
2023-02-19T13:24:33.124Z,10.42
2023-02-19T13:27:48.864Z,10.54
2023-02-19T13:31:16.426Z,9.76
2023-02-19T13:34:10.625Z,9.55
2023-02-19T13:36:57.624Z,9.34
2023-02-19T13:39:48.669Z,9.07
2023-02-19T13:42:37.380Z,8.88
2023-02-19T13:45:31.661Z,8.43
2023-02-19T13:48:29.656Z,8.23
2023-02-19T13:51:49.512Z,8.25
2023-02-19T13:54:40.133Z,8.41
2023-02-19T13:57:29.534Z,8.48
2023-02-19T14:00:50.730Z,8.20
2023-02-19T14:03:54.257Z,8.29
2023-02-19T14:07:19.341Z,8.38
2023-02-19T14:10:12.698Z,8.22
2023-02-19T14:12:59.336Z,8.21
2023-02-19T14:15:51.246Z,8.19
2023-02-19T14:18:46.592Z,8.09
2023-02-19T14:21:39.459Z,8.20
2023-02-19T14:24:26.810Z,8.11
2023-02-19T14:27:13.867Z,8.37
2023-02-19T14:30:01.611Z,8.34
2023-02-19T14:32:54.503Z,8.43
2023-02-19T14:35:48.304Z,8.18
2023-02-19T14:38:40.296Z,8.24
2023-02-19T14:41:29.964Z,8.26
2023-02-19T14:44:21.016Z,8.20
2023-02-19T14:47:10.038Z,8.29
2023-02-19T14:50:02.011Z,8.31
2023-02-19T14:52:52.489Z,8.45
2023-02-19T14:55:42.846Z,8.50
2023-02-19T14:58:32.823Z,9.04
2023-02-19T15:01:29.226Z,9.17
2023-02-19T15:04:23.801Z,9.13
2023-02-19T15:07:16.381Z,9.06
2023-02-19T15:10:06.009Z,9.29
2023-02-19T15:12:56.976Z,8.97
2023-02-19T15:15:46.612Z,9.04
2023-02-19T15:18:36.525Z,8.71
2023-02-19T15:21:26.366Z,8.72
2023-02-19T15:24:14.694Z,9.01
2023-02-19T15:27:01.376Z,9.04
2023-02-19T15:29:53.472Z,9.36
2023-02-19T15:32:40.573Z,9.35
2023-02-19T15:35:28.852Z,9.38
2023-02-19T15:38:15.866Z,9.06
2023-02-19T15:41:02.824Z,9.11
2023-02-19T15:43:54.166Z,8.99
2023-02-19T15:46:43.928Z,8.74
2023-02-19T15:49:39.727Z,9.11
2023-02-19T15:52:34.239Z,8.96
2023-02-19T15:55:27.865Z,9.18
2023-02-19T15:58:21.457Z,9.19
2023-02-19T16:01:16.880Z,9.03
2023-02-19T16:04:07.799Z,9.04
2023-02-19T16:06:57.913Z,9.07
2023-02-19T16:09:44.826Z,8.99
2023-02-19T16:12:31.516Z,9.11
2023-02-19T16:15:21.298Z,8.97
2023-02-19T16:18:08.312Z,8.77
2023-02-19T16:20:57.202Z,8.71
2023-02-19T16:23:44.924Z,8.92
2023-02-19T16:26:32.526Z,8.17
2023-02-19T16:29:21.900Z,8.53
2023-02-19T16:32:17.499Z,8.27
2023-02-19T16:35:06.904Z,8.50
2023-02-19T16:38:01.250Z,8.61
2023-02-19T16:41:07.632Z,8.78
2023-02-19T16:43:54.242Z,8.96
2023-02-19T16:46:40.881Z,8.89
2023-02-19T16:49:27.695Z,8.65
2023-02-19T16:52:16.822Z,8.45
2023-02-19T16:55:12.703Z,8.21
2023-02-19T16:57:59.422Z,8.11
2023-02-19T17:00:46.045Z,8.11
2023-02-19T17:03:33.344Z,7.93
2023-02-19T17:06:19.961Z,8.08
2023-02-19T17:09:08.432Z,7.92
2023-02-19T17:11:56.495Z,8.00
2023-02-19T17:14:43.209Z,8.26
2023-02-19T17:17:29.737Z,7.87
2023-02-19T17:20:24.103Z,7.78
2023-02-19T17:23:10.578Z,7.93
2023-02-19T17:25:57.255Z,8.09
2023-02-19T17:28:45.304Z,8.07
2023-02-19T17:31:31.892Z,8.02
2023-02-19T17:34:18.581Z,8.14
2023-02-19T17:37:05.286Z,8.20
2023-02-19T17:39:51.830Z,8.21
2023-02-19T17:42:38.501Z,7.97
2023-02-19T17:45:26.382Z,7.83
2023-02-19T17:48:13.870Z,7.99
2023-02-19T17:51:00.717Z,7.67
2023-02-19T17:53:47.423Z,7.76
2023-02-19T17:56:34.196Z,7.73
2023-02-19T17:59:20.934Z,7.91
2023-02-19T18:02:09.030Z,7.66
2023-02-19T18:04:55.568Z,7.40
2023-02-19T18:07:42.417Z,7.24
2023-02-19T18:10:30.500Z,7.43
2023-02-19T18:13:17.414Z,7.53
2023-02-19T18:16:04.043Z,7.02
2023-02-19T18:18:52.232Z,7.30
2023-02-19T18:21:38.896Z,7.11
2023-02-19T18:24:25.495Z,7.14
2023-02-19T18:27:12.013Z,6.99
2023-02-19T18:29:58.647Z,7.11
2023-02-19T18:32:47.576Z,7.07
2023-02-19T18:35:35.218Z,7.05
2023-02-19T18:38:22.070Z,6.83
2023-02-19T18:41:12.830Z,6.56
2023-02-19T18:44:00.060Z,6.64
2023-02-19T18:46:46.621Z,6.77
2023-02-19T18:49:33.447Z,6.71
2023-02-19T18:52:24.767Z,6.56
2023-02-19T18:55:12.730Z,6.63
2023-02-19T18:57:59.712Z,6.33
2023-02-19T19:00:46.667Z,6.54
2023-02-19T19:03:33.423Z,6.32
2023-02-19T19:06:19.936Z,6.26
2023-02-19T19:09:08.014Z,6.39
2023-02-19T19:11:54.940Z,6.48
2023-02-19T19:14:41.885Z,6.30
2023-02-19T19:17:28.334Z,5.98
2023-02-19T19:20:20.393Z,5.98
2023-02-19T19:23:07.395Z,6.01
2023-02-19T19:25:55.692Z,6.15
2023-02-19T19:28:44.511Z,6.36
2023-02-19T19:31:36.309Z,6.39
2023-02-19T19:34:23.093Z,6.53
2023-02-19T19:37:09.952Z,6.43
2023-02-19T19:39:56.892Z,6.28
2023-02-19T19:42:44.876Z,6.16
2023-02-19T19:45:31.431Z,6.06
2023-02-19T19:48:18.150Z,6.21
2023-02-19T19:51:04.991Z,6.38
2023-02-19T19:53:51.849Z,6.38
2023-02-19T19:56:42.167Z,6.33
2023-02-19T19:59:29.877Z,6.14
2023-02-19T20:02:16.438Z,6.33
2023-02-19T20:05:03.033Z,6.34
2023-02-19T20:07:50.103Z,6.15
2023-02-19T20:10:36.765Z,6.16
2023-02-19T20:13:24.412Z,6.19
2023-02-19T20:16:14.454Z,6.11
2023-02-19T20:19:01.495Z,5.92
2023-02-19T20:21:49.767Z,5.85
2023-02-19T20:24:36.352Z,5.82
2023-02-19T20:27:23.972Z,5.82
2023-02-19T20:30:13.376Z,5.83
2023-02-19T20:33:01.679Z,5.81
2023-02-19T20:35:48.247Z,5.74
2023-02-19T20:38:34.881Z,6.02
2023-02-19T20:41:21.449Z,5.92
2023-02-19T20:44:08.036Z,5.97
2023-02-19T20:46:54.859Z,5.72
2023-02-19T20:49:46.105Z,5.74
2023-02-19T20:52:32.377Z,5.65
2023-02-19T20:55:19.288Z,5.74
2023-02-19T20:58:06.069Z,5.74
2023-02-19T21:00:53.510Z,5.69
2023-02-19T21:03:40.457Z,5.65
2023-02-19T21:06:28.068Z,5.67
2023-02-19T21:09:14.774Z,5.67
2023-02-19T21:12:01.409Z,5.55
2023-02-19T21:14:48.586Z,5.34
2023-02-19T21:17:35.183Z,5.46
2023-02-19T21:20:22.030Z,5.43
2023-02-19T21:23:10.012Z,5.55
2023-02-19T21:25:56.432Z,5.29
2023-02-19T21:28:43.058Z,5.47
2023-02-19T21:31:37.099Z,5.59
2023-02-19T21:34:25.250Z,5.62
2023-02-19T21:37:11.955Z,5.66
2023-02-19T21:40:00.514Z,5.57
2023-02-19T21:42:47.429Z,5.52
2023-02-19T21:45:34.090Z,5.43
2023-02-19T21:48:20.584Z,5.59
2023-02-19T21:51:07.421Z,5.51
2023-02-19T21:53:54.059Z,5.51
2023-02-19T21:56:41.830Z,5.66
2023-02-19T21:59:28.317Z,5.54
2023-02-19T22:02:14.982Z,5.52
2023-02-19T22:05:02.514Z,5.54
2023-02-19T22:07:50.086Z,5.41
2023-02-19T22:10:36.484Z,5.45
2023-02-19T22:13:24.294Z,5.58
2023-02-19T22:16:11.202Z,5.57
2023-02-19T22:18:59.492Z,5.62
2023-02-19T22:21:46.261Z,5.59
2023-02-19T22:24:32.880Z,5.39
2023-02-19T22:27:19.694Z,5.66
2023-02-19T22:30:09.146Z,5.57
2023-02-19T22:32:55.804Z,5.32
2023-02-19T22:35:42.839Z,5.44
2023-02-19T22:38:29.903Z,5.53
2023-02-19T22:41:17.586Z,5.40
2023-02-19T22:44:04.103Z,5.39
2023-02-19T22:46:53.563Z,5.48
2023-02-19T22:49:41.707Z,5.49
2023-02-19T22:52:29.181Z,5.40
2023-02-19T22:55:16.775Z,5.62
2023-02-19T22:58:03.024Z,5.68
2023-02-19T23:03:54.728Z,5.77
2023-02-19T23:06:43.818Z,5.82
2023-02-19T23:09:30.387Z,5.68
2023-02-19T23:12:16.949Z,5.66
2023-02-19T23:15:03.212Z,5.73
2023-02-19T23:17:49.832Z,5.74
2023-02-19T23:20:38.013Z,5.94
2023-02-19T23:23:24.366Z,6.00
2023-02-19T23:26:12.175Z,6.03
2023-02-19T23:28:59.289Z,6.05
2023-02-19T23:31:46.241Z,6.21
2023-02-19T23:34:32.875Z,6.34
2023-02-19T23:37:20.866Z,6.16
2023-02-19T23:40:08.559Z,6.33
2023-02-19T23:42:56.753Z,6.25
2023-02-19T23:45:42.936Z,6.42
2023-02-19T23:48:29.390Z,6.32
2023-02-19T23:51:15.889Z,6.45
2023-02-19T23:54:03.865Z,6.58
2023-02-19T23:56:50.204Z,6.67
2023-02-19T23:59:36.770Z,6.53
